sensor_id;sensor_type;location;lat;lon;timestamp;P1;durP1;ratioP1;P2;durP2;ratioP2
18445;SDS011;9352;50.888;4.466;2022-10-18T00:01:45;12.48;;;8.57;;
18445;SDS011;9352;50.888;4.466;2022-10-18T00:04:11;13.02;;;8.43;;
18445;SDS011;9352;50.888;4.466;2022-10-18T00:06:38;11.57;;;8.63;;
18445;SDS011;9352;50.888;4.466;2022-10-18T00:09:05;15.25;;;8.52;;
18445;SDS011;9352;50.888;4.466;2022-10-18T00:11:32;11.77;;;8.07;;
18445;SDS011;9352;50.888;4.466;2022-10-18T00:13:59;11.52;;;8.05;;
18445;SDS011;9352;50.888;4.466;2022-10-18T00:16:26;14.68;;;7.78;;
18445;SDS011;9352;50.888;4.466;2022-10-18T00:18:55;16.85;;;8.13;;
18445;SDS011;9352;50.888;4.466;2022-10-18T00:21:22;12.38;;;8.45;;
18445;SDS011;9352;50.888;4.466;2022-10-18T00:23:50;13.57;;;8.45;;
18445;SDS011;9352;50.888;4.466;2022-10-18T00:26:19;12.30;;;8.32;;
18445;SDS011;9352;50.888;4.466;2022-10-18T00:28:49;14.75;;;8.70;;
18445;SDS011;9352;50.888;4.466;2022-10-18T00:31:17;12.25;;;8.57;;
18445;SDS011;9352;50.888;4.466;2022-10-18T00:33:46;11.68;;;8.40;;
18445;SDS011;9352;50.888;4.466;2022-10-18T00:36:18;11.18;;;8.20;;
18445;SDS011;9352;50.888;4.466;2022-10-18T00:38:45;11.40;;;8.52;;
18445;SDS011;9352;50.888;4.466;2022-10-18T00:41:13;15.52;;;8.70;;
18445;SDS011;9352;50.888;4.466;2022-10-18T00:43:51;22.13;;;8.50;;
18445;SDS011;9352;50.888;4.466;2022-10-18T00:46:20;19.77;;;8.18;;
18445;SDS011;9352;50.888;4.466;2022-10-18T00:48:47;19.35;;;8.48;;
18445;SDS011;9352;50.888;4.466;2022-10-18T00:51:15;16.15;;;8.65;;
18445;SDS011;9352;50.888;4.466;2022-10-18T00:53:46;13.70;;;8.77;;
18445;SDS011;9352;50.888;4.466;2022-10-18T00:56:14;11.85;;;8.10;;
18445;SDS011;9352;50.888;4.466;2022-10-18T00:58:42;14.65;;;7.97;;
18445;SDS011;9352;50.888;4.466;2022-10-18T01:01:11;11.23;;;8.20;;
18445;SDS011;9352;50.888;4.466;2022-10-18T01:03:38;13.10;;;8.07;;
18445;SDS011;9352;50.888;4.466;2022-10-18T01:06:06;12.85;;;8.35;;
18445;SDS011;9352;50.888;4.466;2022-10-18T01:08:39;19.00;;;9.07;;
18445;SDS011;9352;50.888;4.466;2022-10-18T01:14:05;15.43;;;8.35;;
18445;SDS011;9352;50.888;4.466;2022-10-18T01:16:50;13.77;;;8.48;;
18445;SDS011;9352;50.888;4.466;2022-10-18T01:19:45;12.35;;;8.55;;
18445;SDS011;9352;50.888;4.466;2022-10-18T01:22:30;13.60;;;8.38;;
18445;SDS011;9352;50.888;4.466;2022-10-18T01:25:05;13.55;;;9.02;;
18445;SDS011;9352;50.888;4.466;2022-10-18T01:27:44;17.13;;;8.85;;
18445;SDS011;9352;50.888;4.466;2022-10-18T01:33:20;12.65;;;8.63;;
18445;SDS011;9352;50.888;4.466;2022-10-18T01:35:52;16.50;;;9.05;;
18445;SDS011;9352;50.888;4.466;2022-10-18T01:38:23;19.70;;;9.32;;
18445;SDS011;9352;50.888;4.466;2022-10-18T01:40:51;18.63;;;9.70;;
18445;SDS011;9352;50.888;4.466;2022-10-18T01:43:20;18.65;;;9.20;;
18445;SDS011;9352;50.888;4.466;2022-10-18T01:45:49;15.88;;;8.52;;
18445;SDS011;9352;50.888;4.466;2022-10-18T01:48:19;14.15;;;9.07;;
18445;SDS011;9352;50.888;4.466;2022-10-18T01:50:47;14.85;;;9.57;;
18445;SDS011;9352;50.888;4.466;2022-10-18T01:53:24;19.15;;;9.80;;
18445;SDS011;9352;50.888;4.466;2022-10-18T01:55:55;18.58;;;9.55;;
18445;SDS011;9352;50.888;4.466;2022-10-18T01:58:36;17.15;;;9.48;;
18445;SDS011;9352;50.888;4.466;2022-10-18T02:01:09;14.60;;;9.55;;
18445;SDS011;9352;50.888;4.466;2022-10-18T02:03:44;16.92;;;9.73;;
18445;SDS011;9352;50.888;4.466;2022-10-18T02:06:16;13.68;;;9.13;;
18445;SDS011;9352;50.888;4.466;2022-10-18T02:08:48;16.08;;;9.43;;
18445;SDS011;9352;50.888;4.466;2022-10-18T02:11:19;15.18;;;9.73;;
18445;SDS011;9352;50.888;4.466;2022-10-18T02:13:47;16.73;;;9.43;;
18445;SDS011;9352;50.888;4.466;2022-10-18T02:16:20;16.20;;;10.57;;
18445;SDS011;9352;50.888;4.466;2022-10-18T02:18:54;21.05;;;10.82;;
18445;SDS011;9352;50.888;4.466;2022-10-18T02:21:23;15.57;;;9.80;;
18445;SDS011;9352;50.888;4.466;2022-10-18T02:23:52;15.05;;;10.15;;
18445;SDS011;9352;50.888;4.466;2022-10-18T02:26:20;16.55;;;10.52;;
18445;SDS011;9352;50.888;4.466;2022-10-18T02:28:47;14.93;;;10.10;;
18445;SDS011;9352;50.888;4.466;2022-10-18T02:31:16;18.30;;;10.57;;
18445;SDS011;9352;50.888;4.466;2022-10-18T02:33:52;17.75;;;10.27;;
18445;SDS011;9352;50.888;4.466;2022-10-18T02:36:23;18.45;;;9.73;;
18445;SDS011;9352;50.888;4.466;2022-10-18T02:38:53;21.15;;;10.85;;
18445;SDS011;9352;50.888;4.466;2022-10-18T02:41:23;16.35;;;10.23;;
18445;SDS011;9352;50.888;4.466;2022-10-18T02:43:52;21.52;;;11.38;;
18445;SDS011;9352;50.888;4.466;2022-10-18T02:46:21;19.23;;;10.95;;
18445;SDS011;9352;50.888;4.466;2022-10-18T02:48:48;15.93;;;9.95;;
18445;SDS011;9352;50.888;4.466;2022-10-18T02:51:15;17.23;;;10.75;;
18445;SDS011;9352;50.888;4.466;2022-10-18T02:53:42;17.23;;;11.38;;
18445;SDS011;9352;50.888;4.466;2022-10-18T02:56:09;17.27;;;10.82;;
18445;SDS011;9352;50.888;4.466;2022-10-18T02:58:36;20.35;;;10.75;;
18445;SDS011;9352;50.888;4.466;2022-10-18T03:01:03;16.83;;;10.50;;
18445;SDS011;9352;50.888;4.466;2022-10-18T03:03:31;24.17;;;11.15;;
18445;SDS011;9352;50.888;4.466;2022-10-18T03:05:58;21.42;;;11.88;;
18445;SDS011;9352;50.888;4.466;2022-10-18T03:08:25;25.90;;;12.80;;
18445;SDS011;9352;50.888;4.466;2022-10-18T03:10:52;31.65;;;14.20;;
18445;SDS011;9352;50.888;4.466;2022-10-18T03:13:18;32.63;;;15.40;;
18445;SDS011;9352;50.888;4.466;2022-10-18T03:15:45;32.90;;;16.42;;
18445;SDS011;9352;50.888;4.466;2022-10-18T03:18:13;36.25;;;15.25;;
18445;SDS011;9352;50.888;4.466;2022-10-18T03:20:41;29.33;;;15.38;;
18445;SDS011;9352;50.888;4.466;2022-10-18T03:23:08;38.63;;;16.08;;
18445;SDS011;9352;50.888;4.466;2022-10-18T03:25:35;39.03;;;16.17;;
18445;SDS011;9352;50.888;4.466;2022-10-18T03:28:01;32.78;;;16.17;;
18445;SDS011;9352;50.888;4.466;2022-10-18T03:30:28;36.15;;;17.25;;
18445;SDS011;9352;50.888;4.466;2022-10-18T03:32:55;34.15;;;17.08;;
18445;SDS011;9352;50.888;4.466;2022-10-18T03:35:22;36.13;;;16.65;;
18445;SDS011;9352;50.888;4.466;2022-10-18T03:37:50;33.50;;;16.15;;
18445;SDS011;9352;50.888;4.466;2022-10-18T03:40:17;39.80;;;16.73;;
18445;SDS011;9352;50.888;4.466;2022-10-18T03:42:44;32.72;;;17.40;;
18445;SDS011;9352;50.888;4.466;2022-10-18T03:45:11;37.53;;;17.08;;
18445;SDS011;9352;50.888;4.466;2022-10-18T03:47:38;36.55;;;17.27;;
18445;SDS011;9352;50.888;4.466;2022-10-18T03:50:05;45.78;;;18.27;;
18445;SDS011;9352;50.888;4.466;2022-10-18T03:52:32;40.45;;;18.77;;
18445;SDS011;9352;50.888;4.466;2022-10-18T03:55:01;42.35;;;20.42;;
18445;SDS011;9352;50.888;4.466;2022-10-18T03:57:28;43.08;;;20.00;;
18445;SDS011;9352;50.888;4.466;2022-10-18T03:59:55;44.75;;;19.90;;
18445;SDS011;9352;50.888;4.466;2022-10-18T04:02:22;45.03;;;21.05;;
18445;SDS011;9352;50.888;4.466;2022-10-18T04:04:49;48.80;;;20.55;;
18445;SDS011;9352;50.888;4.466;2022-10-18T04:07:16;49.50;;;20.55;;
18445;SDS011;9352;50.888;4.466;2022-10-18T04:09:43;45.28;;;21.48;;
18445;SDS011;9352;50.888;4.466;2022-10-18T04:12:12;49.97;;;22.65;;
18445;SDS011;9352;50.888;4.466;2022-10-18T04:14:38;44.67;;;20.85;;
18445;SDS011;9352;50.888;4.466;2022-10-18T04:17:05;50.28;;;21.58;;
18445;SDS011;9352;50.888;4.466;2022-10-18T04:19:32;43.58;;;20.13;;
18445;SDS011;9352;50.888;4.466;2022-10-18T04:21:59;44.30;;;21.17;;
18445;SDS011;9352;50.888;4.466;2022-10-18T04:24:26;49.95;;;22.05;;
18445;SDS011;9352;50.888;4.466;2022-10-18T04:26:53;53.22;;;23.42;;
18445;SDS011;9352;50.888;4.466;2022-10-18T04:29:21;47.70;;;23.05;;
18445;SDS011;9352;50.888;4.466;2022-10-18T04:31:48;52.08;;;22.58;;
18445;SDS011;9352;50.888;4.466;2022-10-18T04:34:15;44.92;;;22.88;;
18445;SDS011;9352;50.888;4.466;2022-10-18T04:36:42;49.53;;;22.98;;
18445;SDS011;9352;50.888;4.466;2022-10-18T04:39:08;53.08;;;25.48;;
18445;SDS011;9352;50.888;4.466;2022-10-18T04:41:35;63.13;;;26.13;;
18445;SDS011;9352;50.888;4.466;2022-10-18T04:44:02;49.50;;;24.80;;
18445;SDS011;9352;50.888;4.466;2022-10-18T04:46:30;53.92;;;24.45;;
18445;SDS011;9352;50.888;4.466;2022-10-18T04:48:57;49.58;;;24.40;;
18445;SDS011;9352;50.888;4.466;2022-10-18T04:51:25;56.03;;;25.38;;
18445;SDS011;9352;50.888;4.466;2022-10-18T04:53:52;59.42;;;25.58;;
18445;SDS011;9352;50.888;4.466;2022-10-18T04:56:19;55.60;;;24.60;;
18445;SDS011;9352;50.888;4.466;2022-10-18T04:58:45;53.85;;;24.85;;
18445;SDS011;9352;50.888;4.466;2022-10-18T05:01:12;55.83;;;24.38;;
18445;SDS011;9352;50.888;4.466;2022-10-18T05:03:42;51.33;;;25.25;;
18445;SDS011;9352;50.888;4.466;2022-10-18T05:06:09;51.00;;;23.77;;
18445;SDS011;9352;50.888;4.466;2022-10-18T05:08:36;52.15;;;23.45;;
18445;SDS011;9352;50.888;4.466;2022-10-18T05:11:03;52.65;;;24.02;;
18445;SDS011;9352;50.888;4.466;2022-10-18T05:13:30;49.03;;;24.05;;
18445;SDS011;9352;50.888;4.466;2022-10-18T05:15:57;45.17;;;22.58;;
18445;SDS011;9352;50.888;4.466;2022-10-18T05:18:24;43.03;;;21.27;;
18445;SDS011;9352;50.888;4.466;2022-10-18T05:20:53;50.60;;;22.08;;
18445;SDS011;9352;50.888;4.466;2022-10-18T05:23:20;47.33;;;21.48;;
18445;SDS011;9352;50.888;4.466;2022-10-18T05:25:47;51.92;;;21.27;;
18445;SDS011;9352;50.888;4.466;2022-10-18T05:28:13;46.70;;;20.83;;
18445;SDS011;9352;50.888;4.466;2022-10-18T05:30:40;48.80;;;20.95;;
18445;SDS011;9352;50.888;4.466;2022-10-18T05:33:07;47.28;;;21.10;;
18445;SDS011;9352;50.888;4.466;2022-10-18T05:35:34;46.88;;;20.52;;
18445;SDS011;9352;50.888;4.466;2022-10-18T05:38:03;48.85;;;21.65;;
18445;SDS011;9352;50.888;4.466;2022-10-18T05:40:31;45.60;;;20.17;;
18445;SDS011;9352;50.888;4.466;2022-10-18T05:42:58;46.67;;;20.90;;
18445;SDS011;9352;50.888;4.466;2022-10-18T05:45:25;48.20;;;20.85;;
18445;SDS011;9352;50.888;4.466;2022-10-18T05:47:52;44.20;;;20.25;;
18445;SDS011;9352;50.888;4.466;2022-10-18T05:50:20;46.55;;;19.88;;
18445;SDS011;9352;50.888;4.466;2022-10-18T05:52:46;49.00;;;20.85;;
18445;SDS011;9352;50.888;4.466;2022-10-18T05:55:15;41.58;;;20.45;;
18445;SDS011;9352;50.888;4.466;2022-10-18T05:57:42;43.25;;;19.98;;
18445;SDS011;9352;50.888;4.466;2022-10-18T06:00:09;47.67;;;19.63;;
18445;SDS011;9352;50.888;4.466;2022-10-18T06:02:37;43.60;;;19.58;;
18445;SDS011;9352;50.888;4.466;2022-10-18T06:05:04;45.58;;;18.98;;
18445;SDS011;9352;50.888;4.466;2022-10-18T06:07:31;45.17;;;19.30;;
18445;SDS011;9352;50.888;4.466;2022-10-18T06:09:58;39.15;;;17.00;;
18445;SDS011;9352;50.888;4.466;2022-10-18T06:12:26;36.22;;;16.77;;
18445;SDS011;9352;50.888;4.466;2022-10-18T06:14:53;40.45;;;15.88;;
18445;SDS011;9352;50.888;4.466;2022-10-18T06:17:20;31.55;;;14.88;;
18445;SDS011;9352;50.888;4.466;2022-10-18T06:19:47;36.55;;;16.08;;
18445;SDS011;9352;50.888;4.466;2022-10-18T06:22:14;40.17;;;15.73;;
18445;SDS011;9352;50.888;4.466;2022-10-18T06:24:40;40.53;;;16.08;;
18445;SDS011;9352;50.888;4.466;2022-10-18T06:27:07;33.90;;;16.08;;
18445;SDS011;9352;50.888;4.466;2022-10-18T06:29:36;41.13;;;16.55;;
18445;SDS011;9352;50.888;4.466;2022-10-18T06:32:04;43.40;;;14.65;;
18445;SDS011;9352;50.888;4.466;2022-10-18T06:34:32;30.67;;;14.63;;
18445;SDS011;9352;50.888;4.466;2022-10-18T06:36:59;37.70;;;14.23;;
18445;SDS011;9352;50.888;4.466;2022-10-18T06:39:26;32.30;;;13.30;;
18445;SDS011;9352;50.888;4.466;2022-10-18T06:41:53;31.58;;;12.10;;
18445;SDS011;9352;50.888;4.466;2022-10-18T06:44:20;25.52;;;11.90;;
18445;SDS011;9352;50.888;4.466;2022-10-18T06:46:48;37.28;;;12.07;;
18445;SDS011;9352;50.888;4.466;2022-10-18T06:49:17;28.63;;;12.52;;
18445;SDS011;9352;50.888;4.466;2022-10-18T06:51:45;36.22;;;12.65;;
18445;SDS011;9352;50.888;4.466;2022-10-18T06:54:11;23.98;;;10.80;;
18445;SDS011;9352;50.888;4.466;2022-10-18T06:56:38;34.00;;;10.80;;
18445;SDS011;9352;50.888;4.466;2022-10-18T06:59:05;23.15;;;10.18;;
18445;SDS011;9352;50.888;4.466;2022-10-18T07:01:32;31.02;;;11.57;;
18445;SDS011;9352;50.888;4.466;2022-10-18T07:04:00;32.58;;;12.90;;
18445;SDS011;9352;50.888;4.466;2022-10-18T07:06:27;25.30;;;12.52;;
18445;SDS011;9352;50.888;4.466;2022-10-18T07:08:54;32.38;;;12.10;;
18445;SDS011;9352;50.888;4.466;2022-10-18T07:11:22;30.27;;;12.43;;
18445;SDS011;9352;50.888;4.466;2022-10-18T07:13:53;37.53;;;13.63;;
18445;SDS011;9352;50.888;4.466;2022-10-18T07:16:24;44.67;;;13.32;;
18445;SDS011;9352;50.888;4.466;2022-10-18T07:18:52;36.97;;;13.38;;
18445;SDS011;9352;50.888;4.466;2022-10-18T07:21:20;38.65;;;14.93;;
18445;SDS011;9352;50.888;4.466;2022-10-18T07:23:49;37.50;;;14.50;;
18445;SDS011;9352;50.888;4.466;2022-10-18T07:26:17;35.92;;;15.10;;
18445;SDS011;9352;50.888;4.466;2022-10-18T07:28:46;38.90;;;15.35;;
18445;SDS011;9352;50.888;4.466;2022-10-18T07:31:13;44.08;;;15.98;;
18445;SDS011;9352;50.888;4.466;2022-10-18T07:33:40;39.45;;;15.20;;
18445;SDS011;9352;50.888;4.466;2022-10-18T07:36:08;36.92;;;14.77;;
18445;SDS011;9352;50.888;4.466;2022-10-18T07:38:40;35.85;;;14.70;;
18445;SDS011;9352;50.888;4.466;2022-10-18T07:41:07;42.13;;;14.85;;
18445;SDS011;9352;50.888;4.466;2022-10-18T07:43:39;42.42;;;15.65;;
18445;SDS011;9352;50.888;4.466;2022-10-18T07:46:07;48.15;;;15.68;;
18445;SDS011;9352;50.888;4.466;2022-10-18T07:48:34;34.47;;;15.40;;
18445;SDS011;9352;50.888;4.466;2022-10-18T07:51:02;71.07;;;27.90;;
18445;SDS011;9352;50.888;4.466;2022-10-18T07:53:29;46.15;;;16.63;;
18445;SDS011;9352;50.888;4.466;2022-10-18T07:55:58;37.28;;;15.45;;
18445;SDS011;9352;50.888;4.466;2022-10-18T07:58:26;32.45;;;12.32;;
18445;SDS011;9352;50.888;4.466;2022-10-18T08:00:53;29.35;;;11.18;;
18445;SDS011;9352;50.888;4.466;2022-10-18T08:03:20;25.23;;;9.13;;
18445;SDS011;9352;50.888;4.466;2022-10-18T08:05:50;18.48;;;8.15;;
18445;SDS011;9352;50.888;4.466;2022-10-18T08:08:18;27.05;;;9.43;;
18445;SDS011;9352;50.888;4.466;2022-10-18T08:10:45;25.38;;;9.82;;
18445;SDS011;9352;50.888;4.466;2022-10-18T08:13:14;20.05;;;8.45;;
18445;SDS011;9352;50.888;4.466;2022-10-18T08:15:41;36.97;;;10.23;;
18445;SDS011;9352;50.888;4.466;2022-10-18T08:18:08;34.35;;;10.35;;
18445;SDS011;9352;50.888;4.466;2022-10-18T08:20:35;50.63;;;11.20;;
18445;SDS011;9352;50.888;4.466;2022-10-18T08:23:02;39.58;;;11.02;;
18445;SDS011;9352;50.888;4.466;2022-10-18T08:25:29;58.55;;;9.88;;
18445;SDS011;9352;50.888;4.466;2022-10-18T08:27:56;29.48;;;6.57;;
18445;SDS011;9352;50.888;4.466;2022-10-18T08:30:27;23.40;;;6.95;;
18445;SDS011;9352;50.888;4.466;2022-10-18T08:32:53;23.08;;;5.63;;
18445;SDS011;9352;50.888;4.466;2022-10-18T08:35:20;19.75;;;5.13;;
18445;SDS011;9352;50.888;4.466;2022-10-18T08:37:47;21.92;;;5.97;;
18445;SDS011;9352;50.888;4.466;2022-10-18T08:40:14;20.08;;;5.63;;
18445;SDS011;9352;50.888;4.466;2022-10-18T08:42:45;33.30;;;5.85;;
18445;SDS011;9352;50.888;4.466;2022-10-18T08:45:22;19.15;;;5.43;;
18445;SDS011;9352;50.888;4.466;2022-10-18T08:47:51;27.05;;;6.63;;
18445;SDS011;9352;50.888;4.466;2022-10-18T08:50:22;22.58;;;6.32;;
18445;SDS011;9352;50.888;4.466;2022-10-18T08:52:53;24.40;;;6.25;;
18445;SDS011;9352;50.888;4.466;2022-10-18T08:55:25;25.45;;;5.65;;
18445;SDS011;9352;50.888;4.466;2022-10-18T08:58:00;21.75;;;5.57;;
18445;SDS011;9352;50.888;4.466;2022-10-18T09:00:28;22.73;;;5.57;;
18445;SDS011;9352;50.888;4.466;2022-10-18T09:03:03;31.48;;;5.05;;
18445;SDS011;9352;50.888;4.466;2022-10-18T09:05:42;18.70;;;4.95;;
18445;SDS011;9352;50.888;4.466;2022-10-18T09:08:18;27.55;;;5.35;;
18445;SDS011;9352;50.888;4.466;2022-10-18T09:10:59;18.75;;;4.85;;
18445;SDS011;9352;50.888;4.466;2022-10-18T09:13:49;24.40;;;4.80;;
18445;SDS011;9352;50.888;4.466;2022-10-18T09:16:33;18.85;;;4.72;;
18445;SDS011;9352;50.888;4.466;2022-10-18T09:19:08;30.38;;;4.82;;
18445;SDS011;9352;50.888;4.466;2022-10-18T09:21:50;33.65;;;4.57;;
18445;SDS011;9352;50.888;4.466;2022-10-18T09:24:21;23.50;;;4.78;;
18445;SDS011;9352;50.888;4.466;2022-10-18T09:26:56;22.38;;;4.90;;
18445;SDS011;9352;50.888;4.466;2022-10-18T09:29:33;21.08;;;4.25;;
18445;SDS011;9352;50.888;4.466;2022-10-18T09:32:13;16.55;;;3.78;;
18445;SDS011;9352;50.888;4.466;2022-10-18T09:34:50;22.48;;;4.57;;
18445;SDS011;9352;50.888;4.466;2022-10-18T09:37:21;27.90;;;4.75;;
18445;SDS011;9352;50.888;4.466;2022-10-18T09:39:50;23.58;;;4.32;;
18445;SDS011;9352;50.888;4.466;2022-10-18T09:42:26;21.17;;;4.47;;
18445;SDS011;9352;50.888;4.466;2022-10-18T09:44:57;17.58;;;4.05;;
18445;SDS011;9352;50.888;4.466;2022-10-18T09:47:28;22.73;;;4.38;;
18445;SDS011;9352;50.888;4.466;2022-10-18T09:50:02;21.48;;;4.32;;
18445;SDS011;9352;50.888;4.466;2022-10-18T09:52:40;29.55;;;4.38;;
18445;SDS011;9352;50.888;4.466;2022-10-18T09:55:12;22.98;;;4.45;;
18445;SDS011;9352;50.888;4.466;2022-10-18T09:57:44;23.73;;;4.65;;
18445;SDS011;9352;50.888;4.466;2022-10-18T10:00:15;18.95;;;4.15;;
18445;SDS011;9352;50.888;4.466;2022-10-18T10:02:46;23.25;;;4.07;;
18445;SDS011;9352;50.888;4.466;2022-10-18T10:05:14;22.20;;;4.55;;
18445;SDS011;9352;50.888;4.466;2022-10-18T10:07:42;22.13;;;4.22;;
18445;SDS011;9352;50.888;4.466;2022-10-18T10:10:12;22.50;;;5.00;;
18445;SDS011;9352;50.888;4.466;2022-10-18T10:12:44;27.83;;;4.57;;
18445;SDS011;9352;50.888;4.466;2022-10-18T10:15:16;20.75;;;4.63;;
18445;SDS011;9352;50.888;4.466;2022-10-18T10:17:52;17.48;;;4.40;;
18445;SDS011;9352;50.888;4.466;2022-10-18T10:20:23;16.00;;;3.28;;
18445;SDS011;9352;50.888;4.466;2022-10-18T10:22:55;17.83;;;3.47;;
18445;SDS011;9352;50.888;4.466;2022-10-18T10:25:32;14.40;;;3.05;;
18445;SDS011;9352;50.888;4.466;2022-10-18T10:28:02;17.95;;;4.00;;
18445;SDS011;9352;50.888;4.466;2022-10-18T10:30:32;23.73;;;3.50;;
18445;SDS011;9352;50.888;4.466;2022-10-18T10:33:00;22.20;;;4.35;;
18445;SDS011;9352;50.888;4.466;2022-10-18T10:35:30;22.08;;;4.40;;
18445;SDS011;9352;50.888;4.466;2022-10-18T10:37:58;24.45;;;3.70;;
18445;SDS011;9352;50.888;4.466;2022-10-18T10:40:26;18.33;;;3.50;;
18445;SDS011;9352;50.888;4.466;2022-10-18T10:43:02;18.70;;;3.65;;
18445;SDS011;9352;50.888;4.466;2022-10-18T10:45:33;27.83;;;4.97;;
18445;SDS011;9352;50.888;4.466;2022-10-18T10:48:03;21.67;;;4.30;;
18445;SDS011;9352;50.888;4.466;2022-10-18T10:50:45;17.92;;;4.03;;
18445;SDS011;9352;50.888;4.466;2022-10-18T10:53:25;22.25;;;4.25;;
18445;SDS011;9352;50.888;4.466;2022-10-18T10:55:59;17.20;;;3.83;;
18445;SDS011;9352;50.888;4.466;2022-10-18T10:58:29;15.07;;;4.10;;
18445;SDS011;9352;50.888;4.466;2022-10-18T11:01:15;17.85;;;3.88;;
18445;SDS011;9352;50.888;4.466;2022-10-18T11:03:45;23.85;;;3.85;;
18445;SDS011;9352;50.888;4.466;2022-10-18T11:06:24;16.88;;;4.10;;
18445;SDS011;9352;50.888;4.466;2022-10-18T11:09:23;20.73;;;3.90;;
18445;SDS011;9352;50.888;4.466;2022-10-18T11:12:07;17.02;;;3.83;;
18445;SDS011;9352;50.888;4.466;2022-10-18T11:14:43;20.48;;;3.58;;
18445;SDS011;9352;50.888;4.466;2022-10-18T11:17:16;18.70;;;3.50;;
18445;SDS011;9352;50.888;4.466;2022-10-18T11:19:55;19.25;;;3.45;;
18445;SDS011;9352;50.888;4.466;2022-10-18T11:22:31;23.75;;;5.15;;
18445;SDS011;9352;50.888;4.466;2022-10-18T11:25:02;16.52;;;2.95;;
18445;SDS011;9352;50.888;4.466;2022-10-18T11:27:31;18.30;;;3.72;;
18445;SDS011;9352;50.888;4.466;2022-10-18T11:33:03;22.40;;;3.70;;
18445;SDS011;9352;50.888;4.466;2022-10-18T11:35:37;16.48;;;3.42;;
18445;SDS011;9352;50.888;4.466;2022-10-18T11:38:18;22.02;;;3.78;;
18445;SDS011;9352;50.888;4.466;2022-10-18T11:40:55;13.38;;;2.65;;
18445;SDS011;9352;50.888;4.466;2022-10-18T11:43:36;15.32;;;2.47;;
18445;SDS011;9352;50.888;4.466;2022-10-18T11:46:12;12.20;;;2.85;;
18445;SDS011;9352;50.888;4.466;2022-10-18T11:48:50;16.58;;;3.05;;
18445;SDS011;9352;50.888;4.466;2022-10-18T11:51:29;24.45;;;3.15;;
18445;SDS011;9352;50.888;4.466;2022-10-18T11:54:13;19.00;;;3.40;;
18445;SDS011;9352;50.888;4.466;2022-10-18T11:56:53;22.90;;;3.50;;
18445;SDS011;9352;50.888;4.466;2022-10-18T11:59:31;19.80;;;3.45;;
18445;SDS011;9352;50.888;4.466;2022-10-18T12:02:13;19.33;;;2.75;;
18445;SDS011;9352;50.888;4.466;2022-10-18T12:04:57;9.98;;;2.40;;
18445;SDS011;9352;50.888;4.466;2022-10-18T12:07:27;7.28;;;1.90;;
18445;SDS011;9352;50.888;4.466;2022-10-18T12:10:00;13.23;;;2.70;;
18445;SDS011;9352;50.888;4.466;2022-10-18T12:12:30;15.93;;;3.28;;
18445;SDS011;9352;50.888;4.466;2022-10-18T12:15:01;10.77;;;2.78;;
18445;SDS011;9352;50.888;4.466;2022-10-18T12:17:33;16.42;;;3.20;;
18445;SDS011;9352;50.888;4.466;2022-10-18T12:20:04;13.23;;;2.70;;
18445;SDS011;9352;50.888;4.466;2022-10-18T12:22:38;14.02;;;2.50;;
18445;SDS011;9352;50.888;4.466;2022-10-18T12:25:10;11.98;;;3.03;;
18445;SDS011;9352;50.888;4.466;2022-10-18T12:27:43;13.77;;;2.40;;
18445;SDS011;9352;50.888;4.466;2022-10-18T12:30:17;9.00;;;2.83;;
18445;SDS011;9352;50.888;4.466;2022-10-18T12:32:52;11.57;;;2.70;;
18445;SDS011;9352;50.888;4.466;2022-10-18T12:35:29;10.75;;;2.55;;
18445;SDS011;9352;50.888;4.466;2022-10-18T12:38:06;14.85;;;3.13;;
18445;SDS011;9352;50.888;4.466;2022-10-18T12:40:45;11.82;;;2.28;;
18445;SDS011;9352;50.888;4.466;2022-10-18T12:43:15;12.80;;;2.17;;
18445;SDS011;9352;50.888;4.466;2022-10-18T12:45:47;10.88;;;2.25;;
18445;SDS011;9352;50.888;4.466;2022-10-18T12:48:31;8.45;;;2.28;;
18445;SDS011;9352;50.888;4.466;2022-10-18T12:51:03;11.93;;;2.10;;
18445;SDS011;9352;50.888;4.466;2022-10-18T12:53:32;8.80;;;2.33;;
18445;SDS011;9352;50.888;4.466;2022-10-18T13:02:24;9.23;;;2.28;;
18445;SDS011;9352;50.888;4.466;2022-10-18T13:04:55;10.18;;;2.25;;
18445;SDS011;9352;50.888;4.466;2022-10-18T13:07:32;11.48;;;2.65;;
18445;SDS011;9352;50.888;4.466;2022-10-18T13:16:03;7.22;;;2.15;;
18445;SDS011;9352;50.888;4.466;2022-10-18T13:18:41;11.07;;;2.45;;
18445;SDS011;9352;50.888;4.466;2022-10-18T13:21:18;19.08;;;2.50;;
18445;SDS011;9352;50.888;4.466;2022-10-18T13:24:02;12.48;;;2.55;;
18445;SDS011;9352;50.888;4.466;2022-10-18T13:26:41;12.82;;;2.63;;
18445;SDS011;9352;50.888;4.466;2022-10-18T13:29:24;17.73;;;2.50;;
18445;SDS011;9352;50.888;4.466;2022-10-18T13:32:01;14.05;;;2.42;;
18445;SDS011;9352;50.888;4.466;2022-10-18T13:34:40;15.07;;;2.78;;
18445;SDS011;9352;50.888;4.466;2022-10-18T13:37:17;14.43;;;2.55;;
18445;SDS011;9352;50.888;4.466;2022-10-18T13:39:48;22.10;;;3.05;;
18445;SDS011;9352;50.888;4.466;2022-10-18T13:51:14;9.15;;;2.13;;
18445;SDS011;9352;50.888;4.466;2022-10-18T13:54:01;11.52;;;2.55;;
18445;SDS011;9352;50.888;4.466;2022-10-18T13:56:45;11.38;;;2.40;;
18445;SDS011;9352;50.888;4.466;2022-10-18T13:59:20;20.00;;;3.25;;
18445;SDS011;9352;50.888;4.466;2022-10-18T14:02:09;15.98;;;2.50;;
18445;SDS011;9352;50.888;4.466;2022-10-18T14:05:03;16.65;;;2.33;;
18445;SDS011;9352;50.888;4.466;2022-10-18T14:07:48;19.88;;;3.03;;
18445;SDS011;9352;50.888;4.466;2022-10-18T14:10:19;12.07;;;2.17;;
18445;SDS011;9352;50.888;4.466;2022-10-18T14:12:49;12.73;;;2.60;;
18445;SDS011;9352;50.888;4.466;2022-10-18T14:15:23;15.10;;;2.63;;
18445;SDS011;9352;50.888;4.466;2022-10-18T14:17:53;17.30;;;2.60;;
18445;SDS011;9352;50.888;4.466;2022-10-18T14:20:28;17.13;;;2.47;;
18445;SDS011;9352;50.888;4.466;2022-10-18T14:23:02;11.13;;;2.90;;
18445;SDS011;9352;50.888;4.466;2022-10-18T14:25:34;8.30;;;2.35;;
18445;SDS011;9352;50.888;4.466;2022-10-18T14:28:08;10.02;;;2.28;;
18445;SDS011;9352;50.888;4.466;2022-10-18T14:30:49;13.52;;;2.30;;
18445;SDS011;9352;50.888;4.466;2022-10-18T14:33:24;12.18;;;2.40;;
18445;SDS011;9352;50.888;4.466;2022-10-18T14:35:58;8.70;;;2.38;;
18445;SDS011;9352;50.888;4.466;2022-10-18T14:38:32;12.00;;;2.40;;
18445;SDS011;9352;50.888;4.466;2022-10-18T14:43:46;13.23;;;2.30;;
18445;SDS011;9352;50.888;4.466;2022-10-18T14:46:17;12.98;;;2.60;;
18445;SDS011;9352;50.888;4.466;2022-10-18T14:48:52;14.20;;;2.35;;
18445;SDS011;9352;50.888;4.466;2022-10-18T14:51:20;14.65;;;2.60;;
18445;SDS011;9352;50.888;4.466;2022-10-18T14:53:48;12.65;;;2.78;;
18445;SDS011;9352;50.888;4.466;2022-10-18T14:56:26;12.45;;;2.20;;
18445;SDS011;9352;50.888;4.466;2022-10-18T14:58:56;10.07;;;2.50;;
18445;SDS011;9352;50.888;4.466;2022-10-18T15:01:27;11.88;;;2.67;;
18445;SDS011;9352;50.888;4.466;2022-10-18T15:03:56;12.68;;;2.28;;
18445;SDS011;9352;50.888;4.466;2022-10-18T15:06:24;10.52;;;2.10;;
18445;SDS011;9352;50.888;4.466;2022-10-18T15:08:54;12.68;;;2.33;;
18445;SDS011;9352;50.888;4.466;2022-10-18T15:11:22;8.35;;;1.88;;
18445;SDS011;9352;50.888;4.466;2022-10-18T15:14:00;10.45;;;1.80;;
18445;SDS011;9352;50.888;4.466;2022-10-18T15:16:31;8.18;;;2.40;;
18445;SDS011;9352;50.888;4.466;2022-10-18T15:19:02;14.40;;;2.80;;
18445;SDS011;9352;50.888;4.466;2022-10-18T15:21:32;11.98;;;2.38;;
18445;SDS011;9352;50.888;4.466;2022-10-18T15:24:26;14.52;;;3.38;;
18445;SDS011;9352;50.888;4.466;2022-10-18T15:26:55;12.20;;;2.83;;
18445;SDS011;9352;50.888;4.466;2022-10-18T15:29:26;12.20;;;2.55;;
18445;SDS011;9352;50.888;4.466;2022-10-18T15:32:02;13.20;;;2.60;;
18445;SDS011;9352;50.888;4.466;2022-10-18T15:34:32;9.80;;;2.30;;
18445;SDS011;9352;50.888;4.466;2022-10-18T15:37:00;12.23;;;2.60;;
18445;SDS011;9352;50.888;4.466;2022-10-18T15:39:42;12.55;;;2.60;;